WetterOnline ( https://www.wetteronline.de )

Wetter aktuell Borkum

Aktuelles Wetter: Norderney (16m)

6-stündlich | Neueste Meldungen
Ortszeit Temperatur Wetter
Fr, 18.09. 14:00 17.2° C wolkenlos
Fr, 18.09. 8:00 10.1° C wolkenlos
Fr, 18.09. 2:00 11.7° C wolkenlos
Do, 17.09. 20:00 14.2° C -
Do, 17.09. 14:00 16.8° C fast wolkenlos
Do, 17.09. 8:00 14.3° C leicht bewölkt
Do, 17.09. 2:00 15.3° C wolkenlos
Mi, 16.09. 20:00 15.9° C wolkig
Ortszeit Temperatur Wetter
Fr, 18.09. 16:30 16.5° C wolkig
Fr, 18.09. 16:20 16.5° C wolkig
Fr, 18.09. 16:10 16.8° C wolkig
Fr, 18.09. 16:00 17.0° C leicht bewölkt
Fr, 18.09. 15:50 17.0° C leicht bewölkt
Fr, 18.09. 15:40 16.6° C fast wolkenlos
Fr, 18.09. 15:30 16.9° C leicht bewölkt
Fr, 18.09. 15:00 17.4° C wolkenlos
Fr, 18.09. 14:30 17.3° C wolkenlos
Fr, 18.09. 14:00 17.2° C wolkenlos
Fr, 18.09. 13:30 16.8° C wolkenlos
Fr, 18.09. 13:00 16.6° C wolkenlos
Ortszeit Relative Feuchte Sichtweite
Fr, 18.09. 14:00 47% 55 km
Fr, 18.09. 8:00 74% 65 km
Fr, 18.09. 2:00 75% 60 km
Do, 17.09. 20:00 66% 50 km
Do, 17.09. 14:00 48% >70 km
Do, 17.09. 8:00 60% 35 km
Do, 17.09. 2:00 67% 21 km
Mi, 16.09. 20:00 73% 14 km
Ortszeit Relative Feuchte Sichtweite
Fr, 18.09. 16:30 57% 55 km
Fr, 18.09. 16:20 57% -
Fr, 18.09. 16:10 55% -
Fr, 18.09. 16:00 55% 40 km
Fr, 18.09. 15:50 55% -
Fr, 18.09. 15:40 55% -
Fr, 18.09. 15:30 55% 40 km
Fr, 18.09. 15:00 49% 35 km
Fr, 18.09. 14:30 45% 65 km
Fr, 18.09. 14:00 47% 55 km
Fr, 18.09. 13:30 46% >70 km
Fr, 18.09. 13:00 48% 60 km
Ortszeit Niederschlagsmenge Niederschlagsart
Fr, 18.09. 14:00 0.0 l/m2 in 6 Std. -
Fr, 18.09. 8:00 0.0 l/m2 in 12 Std. -
Fr, 18.09. 2:00 0.0 l/m2 in 6 Std. -
Do, 17.09. 20:00 0.0 l/m2 in 12 Std. -
Do, 17.09. 14:00 0.0 l/m2 in 6 Std. -
Do, 17.09. 8:00 0.0 l/m2 in 12 Std. -
Do, 17.09. 2:00 0.0 l/m2 in 6 Std. -
Mi, 16.09. 20:00 0.0 l/m2 in 12 Std. -
Ortszeit Niederschlagsmenge Niederschlagsart
Fr, 18.09. 16:30 0.0 l/m2 in 1 Std. -
Fr, 18.09. 16:20 keine Meldung -
Fr, 18.09. 16:10 keine Meldung -
Fr, 18.09. 16:00 0.0 l/m2 in 1 Std. -
Fr, 18.09. 15:50 keine Meldung -
Fr, 18.09. 15:40 keine Meldung -
Fr, 18.09. 15:30 0.0 l/m2 in 1 Std. -
Fr, 18.09. 15:00 0.0 l/m2 in 1 Std. -
Fr, 18.09. 14:30 0.0 l/m2 in 1 Std. -
Fr, 18.09. 14:00 0.0 l/m2 in 1 Std. -
Fr, 18.09. 13:30 0.0 l/m2 in 1 Std. -
Fr, 18.09. 13:00 0.0 l/m2 in 1 Std. -
Ortszeit Stärke Spitze Richtung
km/h Bft. km/h Grad Sektor
Fr, 18.09. 14:00 19 3 33 90° O
Fr, 18.09. 8:00 13 3 24 120° SO
Fr, 18.09. 2:00 13 3 31 110° O
Do, 17.09. 20:00 20 4 35 60° NO
Do, 17.09. 14:00 22 4 36 60° NO
Do, 17.09. 8:00 22 4 48 60° NO
Do, 17.09. 2:00 40 6 54 40° NO
Mi, 16.09. 20:00 46 6 56 360° N
Ortszeit Stärke Spitze Richtung
km/h Bft. km/h Grad Sektor
Fr, 18.09. 16:30 30 5 41 60° NO
Fr, 18.09. 16:20 30 5 - 60° NO
Fr, 18.09. 16:10 29 5 - 60° NO
Fr, 18.09. 16:00 29 5 43 60° NO
Fr, 18.09. 15:50 29 5 - 60° NO
Fr, 18.09. 15:40 30 5 - 60° NO
Fr, 18.09. 15:30 31 5 43 60° NO
Fr, 18.09. 15:00 29 5 40 60° NO
Fr, 18.09. 14:30 20 4 33 70° O
Fr, 18.09. 14:00 19 3 33 90° O
Fr, 18.09. 13:30 19 3 31 90° O
Fr, 18.09. 13:00 14 3 25 100° O
Ortszeit Untergrenze Bedeckung Gattung
total tief tief mittel hoch
Fr, 18.09. 14:00 - 0/8 0/8 - - -
Fr, 18.09. 8:00 - 0/8 0/8 - - -
Fr, 18.09. 2:00 - 0/8 0/8 - - -
Do, 17.09. 20:00 - - - - - -
Do, 17.09. 14:00 8700 m 2/8 0/8 - - -
Do, 17.09. 8:00 7800 m 4/8 0/8 - - -
Do, 17.09. 2:00 - 0/8 0/8 - - -
Mi, 16.09. 20:00 690 m 5/8 5/8 - - -
Ortszeit Bedeckungsgrad in Achtel und Wolkenuntergrenze
Fr, 18.09. 16:30 7(10500m)
Fr, 18.09. 16:20 7(10500m)
Fr, 18.09. 16:10 7(10500m)
Fr, 18.09. 16:00 4(10500m)
Fr, 18.09. 15:50 4(10500m)
Fr, 18.09. 15:40 1(10500m)
Fr, 18.09. 15:30 4(10500m)
Fr, 18.09. 15:00 2(10500m)
Fr, 18.09. 14:30 keine Wolken
Fr, 18.09. 14:00 keine Wolken
Fr, 18.09. 13:30 keine Wolken
Fr, 18.09. 13:00 keine Wolken
Ortszeit Luftdruck NN (hPa) Tendenz (hPa in 3 Std.)
Fr, 18.09. 14:00 1029 - 1,7
Fr, 18.09. 8:00 1030 - 0,1
Fr, 18.09. 2:00 1031 - 0,3
Do, 17.09. 20:00 1031 - 0,3
Do, 17.09. 14:00 1032 - 0,2
Do, 17.09. 8:00 1030 + 1,6
Do, 17.09. 2:00 1028 + 1,5
Mi, 16.09. 20:00 1024 + 1,1
Ortszeit Luftdruck NN (hPa) Tendenz (hPa in 3 Std.)
Fr, 18.09. 16:30 1028 - 1,9
Fr, 18.09. 16:20 1028 keine Meldung
Fr, 18.09. 16:10 1028 keine Meldung
Fr, 18.09. 16:00 1028 - 1,8
Fr, 18.09. 15:50 1028 keine Meldung
Fr, 18.09. 15:40 1028 keine Meldung
Fr, 18.09. 15:30 1028 - 1,9
Fr, 18.09. 15:00 1028 - 1,8
Fr, 18.09. 14:30 1029 - 1,9
Fr, 18.09. 14:00 1029 - 1,7
Fr, 18.09. 13:30 1029 - 1,2
Fr, 18.09. 13:00 1030 - 0,8
Ortszeit Schneehöhe (cm)
Fr, 18.09. 14:00 -
Fr, 18.09. 8:00 -
Fr, 18.09. 2:00 -
Do, 17.09. 20:00 -
Do, 17.09. 14:00 -
Do, 17.09. 8:00 -
Do, 17.09. 2:00 -
Mi, 16.09. 20:00 -
Ortszeit Schneehöhe (cm)
Fr, 18.09. 16:30 -
Fr, 18.09. 16:20 -
Fr, 18.09. 16:10 -
Fr, 18.09. 16:00 -
Fr, 18.09. 15:50 -
Fr, 18.09. 15:40 -
Fr, 18.09. 15:30 -
Fr, 18.09. 15:00 -
Fr, 18.09. 14:30 -
Fr, 18.09. 14:00 -
Fr, 18.09. 13:30 -
Fr, 18.09. 13:00 -
Link zu dieser Seite / Seite empfehlen

Das Wetter in ...